createdAt,value
2023-02-19T00:02:56.417Z,79.52
2023-02-19T00:06:07.890Z,79.45
2023-02-19T00:09:14.358Z,78.50
2023-02-19T00:12:24.373Z,78.42
2023-02-19T00:15:35.521Z,79.14
2023-02-19T00:18:45.911Z,79.25
2023-02-19T00:21:55.635Z,79.08
2023-02-19T00:25:04.246Z,78.85
2023-02-19T00:28:10.690Z,79.76
2023-02-19T00:31:24.490Z,80.04
2023-02-19T00:34:30.245Z,80.48
2023-02-19T00:37:37.650Z,80.49
2023-02-19T00:40:49.108Z,80.17
2023-02-19T00:44:04.172Z,80.42
2023-02-19T00:47:15.712Z,79.82
2023-02-19T00:50:23.543Z,81.09
2023-02-19T00:53:28.526Z,81.47
2023-02-19T00:56:37.265Z,81.68
2023-02-19T00:59:42.758Z,81.25
2023-02-19T01:02:51.928Z,80.92
2023-02-19T01:05:58.210Z,80.58
2023-02-19T01:09:06.823Z,80.75
2023-02-19T01:12:11.172Z,82.06
2023-02-19T01:15:18.548Z,82.67
2023-02-19T01:18:25.054Z,82.65
2023-02-19T01:21:31.976Z,82.97
2023-02-19T01:24:41.978Z,83.50
2023-02-19T01:27:50.631Z,82.36
2023-02-19T01:30:54.869Z,81.95
2023-02-19T01:34:02.395Z,81.35
2023-02-19T01:37:12.800Z,81.71
2023-02-19T01:40:19.255Z,82.01
2023-02-19T01:43:25.247Z,82.69
2023-02-19T01:46:30.570Z,82.91
2023-02-19T01:49:38.911Z,82.71
2023-02-19T01:52:43.158Z,84.21
2023-02-19T01:55:50.025Z,85.30
2023-02-19T01:58:54.946Z,86.51
2023-02-19T02:02:01.631Z,88.39
2023-02-19T02:05:12.468Z,90.21
2023-02-19T02:08:39.926Z,88.12
2023-02-19T02:11:50.290Z,88.38
2023-02-19T02:14:58.745Z,87.43
2023-02-19T02:18:12.500Z,87.17
2023-02-19T02:21:38.319Z,87.77
2023-02-19T02:25:07.619Z,88.01
2023-02-19T02:28:23.837Z,89.10
2023-02-19T02:31:35.742Z,90.33
2023-02-19T02:34:51.529Z,89.78
2023-02-19T02:38:00.135Z,89.90
2023-02-19T02:41:09.687Z,89.12
2023-02-19T02:44:19.921Z,88.78
2023-02-19T02:47:46.225Z,87.91
2023-02-19T02:50:56.310Z,87.79
2023-02-19T02:54:27.464Z,87.29
2023-02-19T02:57:33.596Z,88.74
2023-02-19T03:01:01.783Z,90.99
2023-02-19T03:04:12.129Z,92.92
2023-02-19T03:07:22.177Z,94.20
2023-02-19T03:10:34.776Z,95.08
2023-02-19T03:14:05.967Z,95.47
2023-02-19T03:17:37.993Z,94.45
2023-02-19T03:20:48.565Z,93.46
2023-02-19T03:24:16.162Z,92.99
2023-02-19T03:27:28.989Z,91.65
2023-02-19T03:30:43.877Z,91.92
2023-02-19T03:33:56.182Z,93.53
2023-02-19T03:37:10.976Z,93.79
2023-02-19T03:40:19.070Z,93.14
2023-02-19T03:43:27.777Z,92.72
2023-02-19T03:47:06.550Z,93.15
2023-02-19T03:50:20.386Z,94.25
2023-02-19T03:53:36.236Z,94.57
2023-02-19T03:56:54.035Z,94.90
2023-02-19T04:00:14.899Z,96.27
2023-02-19T04:03:28.994Z,96.97
2023-02-19T04:06:39.352Z,96.31
2023-02-19T04:09:59.006Z,96.37
2023-02-19T04:13:09.581Z,96.51
2023-02-19T04:16:21.231Z,98.04
2023-02-19T04:19:27.886Z,98.36
2023-02-19T04:22:36.324Z,98.29
2023-02-19T04:25:45.786Z,98.01
2023-02-19T04:28:54.463Z,98.55
2023-02-19T04:32:04.956Z,98.67
2023-02-19T04:35:14.913Z,99.18
2023-02-19T04:38:21.313Z,100.00
2023-02-19T04:41:29.718Z,100.00
2023-02-19T04:44:38.938Z,100.00
2023-02-19T04:47:45.953Z,100.00
2023-02-19T04:50:52.657Z,100.00
2023-02-19T04:54:01.309Z,100.00
2023-02-19T04:57:09.118Z,100.00
2023-02-19T05:00:17.575Z,100.00
2023-02-19T05:03:24.729Z,100.00
2023-02-19T05:06:34.473Z,98.83
2023-02-19T05:09:42.540Z,98.95
2023-02-19T05:12:56.297Z,98.18
2023-02-19T05:16:07.858Z,97.54
2023-02-19T05:19:15.783Z,98.61
2023-02-19T05:22:23.889Z,98.01
2023-02-19T05:25:31.263Z,98.28
2023-02-19T05:28:38.970Z,97.12
2023-02-19T05:31:47.841Z,96.29
2023-02-19T05:34:56.120Z,94.79
2023-02-19T05:38:04.444Z,94.46
2023-02-19T05:41:15.776Z,94.00
2023-02-19T05:44:23.897Z,94.50
2023-02-19T05:47:28.900Z,95.20
2023-02-19T05:50:39.455Z,96.41
2023-02-19T05:53:49.685Z,97.45
2023-02-19T05:56:58.256Z,98.86
2023-02-19T06:00:06.427Z,100.00
2023-02-19T06:03:18.742Z,100.00
2023-02-19T06:06:26.515Z,100.00
2023-02-19T06:09:35.645Z,100.00
2023-02-19T06:12:43.926Z,100.00
2023-02-19T06:15:51.563Z,100.00
2023-02-19T06:18:56.999Z,100.00
2023-02-19T06:22:03.973Z,100.00
2023-02-19T06:25:15.735Z,100.00
2023-02-19T06:28:22.002Z,100.00
2023-02-19T06:31:30.142Z,100.00
2023-02-19T06:34:37.551Z,100.00
2023-02-19T06:37:48.723Z,100.00
2023-02-19T06:40:55.165Z,100.00
2023-02-19T06:44:06.631Z,100.00
2023-02-19T06:47:16.106Z,100.00
2023-02-19T06:50:22.315Z,100.00
2023-02-19T06:53:29.157Z,100.00
2023-02-19T06:56:43.596Z,100.00
2023-02-19T06:59:52.569Z,100.00
2023-02-19T07:03:05.515Z,100.00
2023-02-19T07:06:12.040Z,100.00
2023-02-19T07:09:20.115Z,100.00
2023-02-19T07:12:26.528Z,100.00
2023-02-19T07:15:34.724Z,100.00
2023-02-19T07:18:42.041Z,100.00
2023-02-19T07:21:52.871Z,100.00
2023-02-19T07:25:02.751Z,100.00
2023-02-19T07:28:13.267Z,100.00
2023-02-19T07:31:21.708Z,100.00
2023-02-19T07:34:30.251Z,100.00
2023-02-19T07:37:36.861Z,100.00
2023-02-19T07:40:52.916Z,100.00
2023-02-19T07:44:00.765Z,100.00
2023-02-19T07:47:09.178Z,100.00
2023-02-19T07:50:20.011Z,100.00
2023-02-19T07:53:26.160Z,100.00
2023-02-19T07:56:35.348Z,100.00
2023-02-19T07:59:43.142Z,100.00
2023-02-19T08:03:02.880Z,100.00
2023-02-19T08:06:13.619Z,100.00
2023-02-19T08:09:22.064Z,100.00
2023-02-19T08:12:49.454Z,100.00
2023-02-19T08:16:01.654Z,100.00
2023-02-19T08:19:19.726Z,100.00
2023-02-19T08:22:29.638Z,100.00
2023-02-19T08:25:35.564Z,100.00
2023-02-19T08:28:44.388Z,100.00
2023-02-19T08:31:55.981Z,100.00
2023-02-19T08:35:05.543Z,100.00
2023-02-19T08:38:15.662Z,100.00
2023-02-19T08:41:21.170Z,100.00
2023-02-19T08:44:28.675Z,100.00
2023-02-19T08:47:39.687Z,100.00
2023-02-19T08:50:46.756Z,100.00
2023-02-19T08:53:54.055Z,100.00
2023-02-19T08:57:00.997Z,100.00
2023-02-19T09:00:08.564Z,100.00
2023-02-19T09:03:17.105Z,100.00
2023-02-19T09:06:25.624Z,100.00
2023-02-19T09:09:33.519Z,100.00
2023-02-19T09:12:42.664Z,100.00
2023-02-19T09:15:51.380Z,100.00
2023-02-19T09:18:57.364Z,100.00
2023-02-19T09:22:05.813Z,100.00
2023-02-19T09:25:12.987Z,100.00
2023-02-19T09:28:20.326Z,100.00
2023-02-19T09:31:25.707Z,100.00
2023-02-19T09:34:34.540Z,100.00
2023-02-19T09:37:41.669Z,100.00
2023-02-19T09:40:49.177Z,100.00
2023-02-19T09:43:56.708Z,100.00
2023-02-19T09:47:09.343Z,100.00
2023-02-19T09:50:18.578Z,100.00
2023-02-19T09:53:27.071Z,100.00
2023-02-19T09:56:34.861Z,100.00
2023-02-19T09:59:43.973Z,100.00
2023-02-19T10:02:52.272Z,100.00
2023-02-19T10:06:08.176Z,100.00
2023-02-19T10:09:25.764Z,100.00
2023-02-19T10:12:33.855Z,100.00
2023-02-19T10:15:49.999Z,100.00
2023-02-19T10:18:57.357Z,100.00
2023-02-19T10:22:04.299Z,100.00
2023-02-19T10:25:13.548Z,100.00
2023-02-19T10:28:20.600Z,100.00
2023-02-19T10:31:27.051Z,100.00
2023-02-19T10:34:32.986Z,100.00
2023-02-19T10:37:46.730Z,100.00
2023-02-19T10:40:53.748Z,100.00
2023-02-19T10:44:13.008Z,100.00
2023-02-19T10:47:19.909Z,100.00
2023-02-19T10:50:29.083Z,100.00
2023-02-19T10:53:42.919Z,100.00
2023-02-19T10:56:47.810Z,100.00
2023-02-19T10:59:54.705Z,100.00
2023-02-19T11:03:16.755Z,100.00
2023-02-19T11:06:27.141Z,100.00
2023-02-19T11:09:45.966Z,100.00
2023-02-19T11:12:52.311Z,100.00
2023-02-19T11:16:01.356Z,100.00
2023-02-19T11:19:07.750Z,100.00
2023-02-19T11:22:29.606Z,100.00
2023-02-19T11:25:35.804Z,100.00
2023-02-19T11:28:43.915Z,100.00
2023-02-19T11:31:52.946Z,87.41
2023-02-19T11:35:18.348Z,75.36
2023-02-19T11:38:24.116Z,68.97
2023-02-19T11:41:39.664Z,62.08
2023-02-19T11:44:48.081Z,61.94
2023-02-19T11:48:11.508Z,63.15
2023-02-19T11:51:29.094Z,56.37
2023-02-19T11:54:35.872Z,50.76
2023-02-19T11:57:46.543Z,49.94
2023-02-19T12:00:59.871Z,51.57
2023-02-19T12:04:26.123Z,50.47
2023-02-19T12:07:39.061Z,46.85
2023-02-19T12:10:57.227Z,53.13
2023-02-19T12:14:09.573Z,50.48
2023-02-19T12:17:38.400Z,45.93
2023-02-19T12:21:03.616Z,46.21
2023-02-19T12:24:27.679Z,48.15
2023-02-19T12:27:50.885Z,48.71
2023-02-19T12:31:04.031Z,50.72
2023-02-19T12:34:09.155Z,46.63
2023-02-19T12:37:20.631Z,48.57
2023-02-19T12:40:45.623Z,47.56
2023-02-19T12:44:06.118Z,50.52
2023-02-19T12:47:20.487Z,51.63
2023-02-19T12:50:29.114Z,53.23
2023-02-19T12:53:42.451Z,63.04
2023-02-19T12:57:05.366Z,100.00
2023-02-19T13:00:13.246Z,100.00
2023-02-19T13:03:36.043Z,100.00
2023-02-19T13:06:50.082Z,100.00
2023-02-19T13:10:03.138Z,100.00
2023-02-19T13:13:15.485Z,100.00
2023-02-19T13:16:25.831Z,100.00
2023-02-19T13:19:33.183Z,99.82
2023-02-19T13:23:02.946Z,92.62
2023-02-19T13:26:15.757Z,100.00
2023-02-19T13:29:38.743Z,100.00
2023-02-19T13:32:50.217Z,100.00
2023-02-19T13:36:07.191Z,100.00
2023-02-19T13:42:36.017Z,100.00
2023-02-19T13:45:45.985Z,100.00
2023-02-19T13:49:11.705Z,100.00
2023-02-19T13:52:22.890Z,100.00
2023-02-19T13:55:48.273Z,100.00
2023-02-19T13:58:56.919Z,100.00
2023-02-19T14:02:03.722Z,100.00
2023-02-19T14:05:12.787Z,100.00
2023-02-19T14:08:39.501Z,100.00
2023-02-19T14:11:49.647Z,100.00
2023-02-19T14:14:58.003Z,100.00
2023-02-19T14:18:26.728Z,100.00
2023-02-19T14:21:40.512Z,100.00
2023-02-19T14:24:49.346Z,100.00
2023-02-19T14:27:59.454Z,100.00
2023-02-19T14:31:17.972Z,100.00
2023-02-19T14:34:27.849Z,100.00
2023-02-19T14:37:36.196Z,100.00
2023-02-19T14:40:45.748Z,100.00
2023-02-19T14:43:56.203Z,100.00
2023-02-19T14:47:06.406Z,100.00
2023-02-19T14:50:21.174Z,100.00
2023-02-19T14:53:28.294Z,100.00
2023-02-19T14:56:37.845Z,100.00
2023-02-19T14:59:54.008Z,100.00
2023-02-19T15:03:05.060Z,100.00
2023-02-19T15:06:17.261Z,100.00
2023-02-19T15:09:27.892Z,100.00
2023-02-19T15:12:43.082Z,100.00
2023-02-19T15:15:50.871Z,100.00
2023-02-19T15:18:58.734Z,100.00
2023-02-19T15:22:07.092Z,100.00
2023-02-19T15:25:16.714Z,100.00
2023-02-19T15:28:26.206Z,100.00
2023-02-19T15:31:33.707Z,100.00
2023-02-19T15:34:43.327Z,100.00
2023-02-19T15:37:50.706Z,100.00
2023-02-19T15:41:00.282Z,100.00
2023-02-19T15:44:12.965Z,100.00
2023-02-19T15:47:36.263Z,100.00
2023-02-19T15:50:48.540Z,100.00
2023-02-19T15:53:57.956Z,100.00
2023-02-19T15:57:08.304Z,100.00
2023-02-19T16:00:17.588Z,100.00
2023-02-19T16:03:26.867Z,100.00
2023-02-19T16:06:32.326Z,100.00
2023-02-19T16:09:40.272Z,100.00
2023-02-19T16:12:55.140Z,100.00
2023-02-19T16:16:21.385Z,100.00
2023-02-19T16:19:28.657Z,100.00
2023-02-19T16:22:42.418Z,100.00
2023-02-19T16:25:59.864Z,100.00
2023-02-19T16:29:09.259Z,100.00
2023-02-19T16:32:18.750Z,100.00
2023-02-19T16:35:42.263Z,100.00
2023-02-19T16:39:10.628Z,100.00
2023-02-19T16:42:19.860Z,100.00
2023-02-19T16:45:27.402Z,100.00
2023-02-19T16:48:36.047Z,100.00
2023-02-19T16:51:43.344Z,100.00
2023-02-19T16:54:50.022Z,100.00
2023-02-19T16:57:57.417Z,100.00
2023-02-19T17:01:06.538Z,100.00
2023-02-19T17:04:13.696Z,100.00
2023-02-19T17:07:24.336Z,100.00
2023-02-19T17:10:30.867Z,100.00
2023-02-19T17:13:37.181Z,100.00
2023-02-19T17:16:46.008Z,100.00
2023-02-19T17:19:55.735Z,100.00
2023-02-19T17:23:03.254Z,100.00
2023-02-19T17:26:10.318Z,100.00
2023-02-19T17:29:16.789Z,100.00
2023-02-19T17:32:23.959Z,100.00
2023-02-19T17:35:31.468Z,100.00
2023-02-19T17:38:38.848Z,100.00
2023-02-19T17:41:48.961Z,100.00
2023-02-19T17:44:56.433Z,100.00
2023-02-19T17:48:04.426Z,100.00
2023-02-19T17:51:13.901Z,100.00
2023-02-19T17:54:20.655Z,100.00
2023-02-19T17:57:27.585Z,100.00
2023-02-19T18:00:35.327Z,100.00
2023-02-19T18:03:45.841Z,100.00
2023-02-19T18:06:54.435Z,100.00
2023-02-19T18:10:01.818Z,100.00
2023-02-19T18:13:10.807Z,100.00
2023-02-19T18:16:20.258Z,100.00
2023-02-19T18:19:26.907Z,100.00
2023-02-19T18:22:32.862Z,100.00
2023-02-19T18:25:38.330Z,100.00
2023-02-19T18:28:46.540Z,100.00
2023-02-19T18:31:59.463Z,100.00
2023-02-19T18:35:11.153Z,100.00
2023-02-19T18:38:19.830Z,100.00
2023-02-19T18:41:29.176Z,100.00
2023-02-19T18:44:36.494Z,100.00
2023-02-19T18:47:49.229Z,100.00
2023-02-19T18:50:55.574Z,100.00
2023-02-19T18:54:04.989Z,100.00
2023-02-19T18:57:09.896Z,100.00
2023-02-19T19:00:19.601Z,100.00
2023-02-19T19:03:25.655Z,100.00
2023-02-19T19:06:30.663Z,100.00
2023-02-19T19:09:36.645Z,100.00
2023-02-19T19:12:42.209Z,100.00
2023-02-19T19:15:53.908Z,100.00
2023-02-19T19:19:00.416Z,100.00
2023-02-19T19:22:09.268Z,100.00
2023-02-19T19:25:16.743Z,100.00
2023-02-19T19:28:22.732Z,100.00
2023-02-19T19:31:35.947Z,100.00
2023-02-19T19:34:43.876Z,100.00
2023-02-19T19:37:54.265Z,100.00
2023-02-19T19:41:02.061Z,100.00
2023-02-19T19:44:11.334Z,100.00
2023-02-19T19:47:18.840Z,100.00
2023-02-19T19:50:24.738Z,100.00
2023-02-19T19:53:30.485Z,100.00
2023-02-19T19:56:41.037Z,100.00
2023-02-19T19:59:53.688Z,100.00
2023-02-19T20:03:02.304Z,100.00
2023-02-19T20:06:12.081Z,100.00
2023-02-19T20:09:30.463Z,100.00
2023-02-19T20:12:41.216Z,100.00
2023-02-19T20:15:50.352Z,100.00
2023-02-19T20:18:59.646Z,100.00
2023-02-19T20:22:07.672Z,100.00
2023-02-19T20:25:13.928Z,100.00
2023-02-19T20:28:25.200Z,100.00
2023-02-19T20:31:36.269Z,100.00
2023-02-19T20:34:44.837Z,100.00
2023-02-19T20:37:54.667Z,100.00
2023-02-19T20:41:01.784Z,100.00
2023-02-19T20:44:09.379Z,100.00
2023-02-19T20:47:16.543Z,100.00
2023-02-19T20:50:24.122Z,100.00
2023-02-19T20:53:30.517Z,100.00
2023-02-19T20:56:37.278Z,100.00
2023-02-19T20:59:45.205Z,100.00
2023-02-19T21:02:54.430Z,100.00
2023-02-19T21:06:01.538Z,100.00
2023-02-19T21:09:07.300Z,100.00
2023-02-19T21:12:14.373Z,100.00
2023-02-19T21:15:22.197Z,100.00
2023-02-19T21:18:29.883Z,100.00
2023-02-19T21:21:38.030Z,100.00
2023-02-19T21:24:45.117Z,100.00
2023-02-19T21:27:51.998Z,100.00
2023-02-19T21:30:57.982Z,100.00
2023-02-19T21:34:05.122Z,100.00
2023-02-19T21:37:08.528Z,100.00
2023-02-19T21:40:13.166Z,100.00
2023-02-19T21:43:16.873Z,100.00
2023-02-19T21:46:24.570Z,100.00
2023-02-19T21:49:31.540Z,98.33
2023-02-19T21:52:41.039Z,97.41
2023-02-19T21:55:57.932Z,93.56
2023-02-19T21:59:07.414Z,91.09
2023-02-19T22:02:14.609Z,89.35
2023-02-19T22:05:20.251Z,89.19
2023-02-19T22:08:26.685Z,88.48
2023-02-19T22:11:34.065Z,84.26
2023-02-19T22:14:41.663Z,81.25
2023-02-19T22:17:47.575Z,80.34
2023-02-19T22:20:55.097Z,78.84
2023-02-19T22:24:08.555Z,79.43
2023-02-19T22:27:15.490Z,76.41
2023-02-19T22:30:22.056Z,75.13
2023-02-19T22:33:28.354Z,76.19
2023-02-19T22:36:38.569Z,76.03
2023-02-19T22:39:47.512Z,75.03
2023-02-19T22:42:58.221Z,74.34
2023-02-19T22:46:08.244Z,73.98
2023-02-19T22:49:15.314Z,74.62
2023-02-19T22:52:22.536Z,74.75
2023-02-19T22:55:29.468Z,73.42
2023-02-19T22:58:39.483Z,71.86
2023-02-19T23:01:53.138Z,71.12
2023-02-19T23:05:01.712Z,71.75
2023-02-19T23:08:11.614Z,71.79
2023-02-19T23:11:27.131Z,71.77
2023-02-19T23:14:36.265Z,72.70
2023-02-19T23:17:41.284Z,72.87
2023-02-19T23:20:49.548Z,74.95
2023-02-19T23:23:57.349Z,75.60
2023-02-19T23:27:05.657Z,74.26
2023-02-19T23:30:14.155Z,76.37
2023-02-19T23:33:21.741Z,74.54
2023-02-19T23:36:28.327Z,74.75
2023-02-19T23:39:37.176Z,72.89
2023-02-19T23:42:48.536Z,72.05
2023-02-19T23:45:59.432Z,72.18
2023-02-19T23:49:12.801Z,72.45
2023-02-19T23:52:22.751Z,72.42
2023-02-19T23:55:30.034Z,71.59
2023-02-19T23:58:39.010Z,72.60
